Latest Coastal Weather Observations for Dennes Point

IDT60701

Issued at 12:52 pm EDT Sunday 14 February 2016 (issued every 10 minutes, with the page automatically refreshed every 10 minutes)

About coastal observations | Map of coastal stations | Coastal observations for TAS | Marine services | Other Formats
Station Details ID: 094255 Name: DENNES POINT Lat: -43.06 Lon: 147.36 Height: 5.67 m
Data from the previous 72 hours. | See also: Recent months at Dennes Point
Date/Time
EDT
Temp

°C
Wind Pressure Rain
since 9am
mm
Weather Cloud Vis
km
Sea
Height
m
Swell
Dir
 
Speed
knots
Gust
knots
hPa Trend Height
m
Period
s
Dir
14/12:37pm 20.2 W 25 37 999.9 - 0.0 - - - - - - -
14/12:30pm 20.6 W 23 33 1000.1 - 0.0 - - - - - - -
14/12:13pm 20.7 WNW 18 29 1000.5 - 0.0 - - - - - - -
14/12:00pm 20.0 W 20 25 1000.5 - 0.0 - - - - - - -
14/11:37am 19.1 WNW 26 36 1000.8 - 0.0 - - - - - - -
14/11:30am 17.8 W 27 38 1000.8 - 0.0 - - - - - - -
14/11:27am 18.7 W 24 38 1000.5 - 0.0 - - - - - - -
14/11:24am 20.6 W 20 31 1000.6 - 0.0 - - - - - - -
14/11:00am 20.3 W 22 29 1000.3 - 0.0 - - - - - - -
14/10:30am 19.5 W 24 32 1000.7 - 0.0 - - - - - - -
14/10:00am 19.3 WNW 20 30 1001.1 - 0.0 - - - - - - -
14/09:31am 18.3 WNW 20 31 1001.1 - 0.0 - - - - - - -
14/09:30am 18.1 WNW 20 30 1001.1 - 0.0 - - - - - - -
14/09:08am 17.9 W 15 29 1001.2 - 0.0 - - - - - - -
14/09:07am 18.1 WNW 14 24 1001.3 - 0.0 - - - - - - -
14/09:00am 17.1 NNW 5 13 1001.5 - 0.0 - - - - - - -
14/08:30am 15.8 NW 3 5 1001.7 - 0.0 - - - - - - -
14/08:00am 15.9 NNW 5 15 1001.7 - 0.0 - - - - - - -
14/07:30am 16.2 NW 8 13 1001.7 - 0.0 - - - - - - -
14/07:00am 16.3 N 9 13 1001.1 - 0.0 - - - - - - -
14/06:30am 16.4 N 7 12 1001.0 - 0.0 - - - - - - -
14/06:00am 16.2 N 11 16 1000.8 - 0.0 - - - - - - -
14/05:30am 16.0 NNW 7 10 1000.7 - 0.0 - - - - - - -
14/05:00am 15.7 NNW 7 10 1000.8 - 0.0 - - - - - - -
14/04:30am 16.0 NW 10 15 1001.1 - 0.0 - - - - - - -
14/04:00am 15.8 NNW 7 9 1001.3 - 0.0 - - - - - - -
14/03:30am 15.8 WNW 8 13 1001.7 - 0.0 - - - - - - -
14/03:00am 15.7 WNW 8 13 1001.7 - 0.0 - - - - - - -
14/02:30am 15.7 W 7 12 1002.2 - 0.0 - - - - - - -
14/02:00am 15.6 W 12 15 1002.2 - 0.0 - - - - - - -
14/01:30am 16.0 W 12 18 1002.6 - 0.0 - - - - - - -
14/01:00am 16.4 W 13 16 1002.5 - 0.0 - - - - - - -
14/12:30am 16.8 W 15 18 1002.4 - 0.0 - - - - - - -
14/12:00am 17.1 W 23 29 1002.0 - 0.0 - - - - - - -
 
Date/Time
EDT
Temp

°C
Wind Pressure Rain
since 9am
mm
Weather Cloud Vis
km
Sea
Height
m
Swell
Dir
 
Speed
knots
Gust
knots
hPa Trend Height
m
Period
s
Dir
13/11:30pm 17.0 W 24 28 1002.1 - 0.0 - - - - - - -
13/11:00pm 17.5 W 23 26 1002.5 - 0.0 - - - - - - -
13/10:30pm 17.9 W 21 29 1002.3 - 0.0 - - - - - - -
13/10:00pm 18.6 W 20 26 1002.4 - 0.0 - - - - - - -
13/09:30pm 18.6 WSW 12 22 1002.0 - 0.0 - - - - - - -
13/09:00pm 18.4 SW 14 19 1001.2 - 0.0 - - - - - - -
13/08:30pm 19.3 SW 10 15 1000.8 - 0.0 - - - - - - -
13/08:00pm 19.0 SE 8 14 1000.6 - 0.0 - - - - - - -
13/07:30pm 19.8 SE 9 19 1000.3 - 0.0 - - - - - - -
13/07:00pm 23.8 WSW 10 14 999.5 - 0.0 - - - - - - -
13/06:30pm 24.2 W 8 11 999.7 - 0.0 - - - - - - -
13/06:00pm 24.8 WSW 8 10 999.5 - 0.0 - - - - - - -
13/05:30pm 26.0 WSW 16 20 999.6 - 0.0 - - - - - - -
13/05:00pm 26.2 WSW 20 25 999.5 - 0.0 - - - - - - -
13/04:30pm 26.6 W 14 19 999.9 - 0.0 - - - - - - -
13/04:14pm 26.8 W 9 20 1000.0 - 0.0 - - - - - - -
13/04:00pm 24.8 E 5 7 1000.2 - 0.0 - - - - - - -
13/03:30pm 24.0 ESE 9 11 1000.4 - 0.0 - - - - - - -
13/03:00pm 24.4 ESE 9 12 1000.6 - 0.0 - - - - - - -
13/02:30pm 24.9 ESE 7 10 1000.7 - 0.0 - - - - - - -
13/02:00pm 24.3 E 6 9 1001.0 - 0.0 - - - - - - -
13/01:30pm 25.3 W 2 5 1001.5 - 0.0 - - - - - - -
13/01:00pm 25.0 W 2 6 1002.0 - 0.0 - - - - - - -
13/12:30pm 23.8 NE 5 7 1002.5 - 0.0 - - - - - - -
13/12:00pm 23.4 NE 6 7 1003.1 - 0.0 - - - - - - -
13/11:30am 22.6 NNE 6 8 1003.4 - 0.0 - - - - - - -
13/11:00am 21.3 N 8 11 1003.6 - 0.0 - - - - - - -
13/10:30am 20.9 N 9 12 1003.8 - 0.0 - - - - - - -
13/10:00am 20.6 N 9 12 1003.9 - 0.0 - - - - - - -
13/09:30am 20.6 NNW 8 12 1004.3 - 0.0 - - - - - - -
13/09:00am 19.4 WNW 3 7 1004.6 - 0.0 - - - - - - -
13/08:30am 19.2 WNW 5 8 1004.8 - 0.0 - - - - - - -
13/08:00am 18.7 WNW 7 13 1004.9 - 0.0 - - - - - - -
13/07:30am 17.2 SSW 3 3 1004.6 - 0.0 - - - - - - -
13/07:00am 17.0 SSW 5 8 1004.7 - 0.0 - - - - - - -
13/06:30am 16.0 SW 5 6 1004.3 - 0.0 - - - - - - -
13/06:00am 16.2 SSW 3 4 1003.9 - 0.0 - - - - - - -
13/05:30am 16.2 CALM 0 3 1003.8 - 0.0 - - - - - - -
13/05:00am 16.6 SW 1 2 1004.1 - 0.0 - - - - - - -
13/04:30am 16.4 SSW 3 4 1004.7 - 0.0 - - - - - - -
13/04:00am 16.4 SSW 4 5 1005.3 - 0.0 - - - - - - -
13/03:30am 16.9 S 5 9 1005.3 - 0.0 - - - - - - -
13/03:00am 17.9 SE 6 9 1005.5 - 0.0 - - - - - - -
13/02:30am 18.5 S 3 5 1006.2 - 0.0 - - - - - - -
13/02:00am 18.4 E 2 4 1006.4 - 0.0 - - - - - - -
13/01:30am 17.7 W 2 4 1006.7 - 0.0 - - - - - - -
13/01:00am 18.6 SSW 4 5 1007.0 - 0.0 - - - - - - -
13/12:30am 19.2 WSW 3 5 1007.1 - 0.0 - - - - - - -
13/12:00am 20.5 SSW 1 2 1007.3 - 0.0 - - - - - - -
 
Date/Time
EDT
Temp

°C
Wind Pressure Rain
since 9am
mm
Weather Cloud Vis
km
Sea
Height
m
Swell
Dir
 
Speed
knots
Gust
knots
hPa Trend Height
m
Period
s
Dir
12/11:30pm 20.5 SSW 3 7 1007.6 - 0.0 - - - - - - -
12/11:00pm 19.8 SW 8 10 1007.9 - 0.0 - - - - - - -
12/10:30pm 20.8 NW 6 7 1008.2 - 0.0 - - - - - - -
12/10:00pm 21.9 N 10 13 1008.4 - 0.0 - - - - - - -
12/09:30pm 21.6 N 9 11 1008.5 - 0.0 - - - - - - -
12/09:00pm 21.3 NNE 8 12 1008.6 - 0.0 - - - - - - -
12/08:30pm 21.5 NE 9 11 1008.9 - 0.0 - - - - - - -
12/08:00pm 21.7 NE 11 14 1009.1 - 0.0 - - - - - - -
12/07:30pm 21.9 NE 12 15 1009.1 - 0.0 - - - - - - -
12/07:00pm 22.5 ENE 16 20 1009.2 - 0.0 - - - - - - -
12/06:30pm 22.3 ENE 14 18 1009.7 - 0.0 - - - - - - -
12/06:00pm 22.4 E 17 19 1009.9 - 0.0 - - - - - - -
12/05:30pm 22.5 ENE 19 23 1010.3 - 0.0 - - - - - - -
12/05:00pm 22.8 ENE 19 23 1010.6 - 0.0 - - - - - - -
12/04:30pm 22.4 ENE 20 23 1011.1 - 0.0 - - - - - - -
12/04:00pm 22.8 ENE 18 21 1011.7 - 0.0 - - - - - - -
12/03:30pm 22.5 E 17 20 1012.5 - 0.0 - - - - - - -
12/03:00pm 23.1 ENE 16 18 1012.8 - 0.0 - - - - - - -
12/02:30pm 22.7 ENE 17 20 1013.1 - 0.0 - - - - - - -
12/02:00pm 22.3 E 15 19 1013.7 - 0.0 - - - - - - -
12/01:30pm 23.3 NE 9 12 1014.2 - 0.0 - - - - - - -
12/01:00pm 22.8 NE 7 9 1014.7 - 0.0 - - - - - - -
12/12:30pm 21.8 NE 7 9 1015.5 - 0.0 - - - - - - -
12/12:00pm 21.4 NNE 9 13 1016.2 - 0.0 - - - - - - -
12/11:30am 20.6 NNE 8 11 1016.5 - 0.0 - - - - - - -
12/11:00am 19.4 NNE 8 11 1017.2 - 0.0 - - - - - - -
12/10:30am 19.7 NNE 7 10 1017.4 - 0.0 - - - - - - -
12/10:00am 18.8 NNE 8 11 1017.5 - 0.0 - - - - - - -
12/09:30am 18.1 NNE 8 10 1017.9 - 0.0 - - - - - - -
12/09:00am 17.6 NNE 7 9 1018.2 - 0.0 - - - - - - -
12/08:30am 17.3 NE 7 9 1018.1 - 0.0 - - - - - - -
12/08:00am 17.1 NNE 7 9 1018.0 - 0.0 - - - - - - -
12/07:30am 16.7 NE 6 7 1017.9 - 0.0 - - - - - - -
12/07:00am 16.6 NNE 6 7 1017.7 - 0.0 - - - - - - -
12/06:30am 16.3 NE 6 7 1017.5 - 0.0 - - - - - - -
12/06:00am 16.3 NE 5 7 1017.3 - 0.0 - - - - - - -
12/05:30am 16.2 NE 5 6 1017.3 - 0.0 - - - - - - -
12/05:00am 16.3 NE 5 6 1017.4 - 0.0 - - - - - - -
12/04:30am 16.2 NE 4 6 1017.5 - 0.0 - - - - - - -
12/04:00am 16.2 NE 4 5 1017.7 - 0.0 - - - - - - -
12/03:30am 16.2 NE 5 7 1017.8 - 0.0 - - - - - - -
12/03:00am 16.4 NNE 7 8 1017.9 - 0.0 - - - - - - -
12/02:30am 16.7 NE 6 8 1018.0 - 0.0 - - - - - - -
12/02:00am 16.7 NE 3 4 1018.3 - 0.0 - - - - - - -
12/01:30am 16.9 NE 3 7 1018.5 - 0.0 - - - - - - -
12/01:00am 16.4 CALM 0 0 1018.7 - 0.0 - - - - - - -
12/12:30am 16.3 CALM 0 0 1018.8 - 0.0 - - - - - - -
12/12:00am 16.4 CALM 0 0 1018.8 - 0.0 - - - - - - -
 
Date/Time
EDT
Temp

°C
Wind Pressure Rain
since 9am
mm
Weather Cloud Vis
km
Sea
Height
m
Swell
Dir
 
Speed
knots
Gust
knots
hPa Trend Height
m
Period
s
Dir
11/11:30pm 16.4 SE 2 3 1018.9 - 0.0 - - - - - - -
11/11:00pm 16.3 SE 2 5 1019.0 - 0.0 - - - - - - -
11/10:30pm 16.5 ESE 7 10 1018.9 - 0.0 - - - - - - -
11/10:00pm 16.7 ESE 6 8 1019.0 - 0.0 - - - - - - -
11/09:30pm 16.7 ESE 6 10 1018.6 - 0.0 - - - - - - -
11/09:00pm 16.7 SE 6 9 1018.5 - 0.0 - - - - - - -
11/08:30pm 16.8 ESE 7 10 1018.1 - 0.0 - - - - - - -
11/08:00pm 16.8 SE 8 11 1017.8 - 0.0 - - - - - - -
11/07:30pm 16.9 ESE 9 12 1017.5 - 0.0 - - - - - - -
11/07:00pm 17.2 ESE 10 13 1017.1 - 0.0 - - - - - - -
11/06:30pm 17.4 ESE 11 14 1016.9 - 0.0 - - - - - - -
11/06:00pm 17.4 ESE 11 17 1016.8 - 0.0 - - - - - - -
11/05:30pm 17.6 ESE 11 16 1016.7 - 0.0 - - - - - - -
11/05:00pm 18.4 ESE 13 17 1016.6 - 0.0 - - - - - - -
11/04:30pm 18.1 ESE 13 17 1016.4 - 0.0 - - - - - - -
11/04:00pm 19.0 ESE 12 16 1016.3 - 0.0 - - - - - - -
11/03:30pm 19.9 SE 9 13 1016.4 - 0.0 - - - - - - -
11/03:00pm 18.9 SE 10 19 1016.4 - 0.0 - - - - - - -
11/02:30pm 19.3 ESE 13 19 1016.5 - 0.0 - - - - - - -
11/02:00pm 19.2 ESE 13 17 1016.6 - 0.0 - - - - - - -
11/01:30pm 19.7 ESE 12 15 1016.5 - 0.0 - - - - - - -
11/01:00pm 19.9 ESE 12 15 1016.4 - 0.0 - - - - - - -

Other Formats:

Comma delimited format used in spreadsheet applications
http://www.bom.gov.au/fwo/IDT60701/IDT60701.94988.axf

JavaScript Object Notation format (JSON) in row-major order
http://www.bom.gov.au/fwo/IDT60701/IDT60701.94988.json